createdAt,value
2019-04-03T00:00:39.043Z,6.00
2019-04-03T00:03:10.807Z,6.00
2019-04-03T00:05:41.295Z,5.90
2019-04-03T00:08:12.959Z,6.00
2019-04-03T00:10:42.164Z,6.00
2019-04-03T00:13:16.902Z,6.00
2019-04-03T00:15:47.263Z,6.10
2019-04-03T00:18:19.068Z,6.10
2019-04-03T00:20:49.284Z,6.10
2019-04-03T00:23:18.362Z,6.10
2019-04-03T00:25:47.275Z,6.00
2019-04-03T00:28:18.965Z,6.00
2019-04-03T00:30:47.867Z,6.00
2019-04-03T00:33:16.810Z,5.90
2019-04-03T00:35:48.468Z,5.90
2019-04-03T00:38:17.414Z,5.90
2019-04-03T00:40:49.316Z,5.80
2019-04-03T00:43:19.328Z,5.90
2019-04-03T00:45:48.313Z,5.90
2019-04-03T00:48:17.453Z,5.90
2019-04-03T00:50:49.256Z,5.90
2019-04-03T00:53:18.209Z,6.00
2019-04-03T00:55:50.121Z,6.00
2019-04-03T00:58:36.814Z,6.00
2019-04-03T01:01:11.720Z,6.00
2019-04-03T01:03:42.427Z,6.00
2019-04-03T01:06:17.461Z,6.00
2019-04-03T01:08:46.406Z,6.00
2019-04-03T01:11:18.090Z,6.00
2019-04-03T01:13:50.132Z,6.00
2019-04-03T01:16:19.041Z,6.00
2019-04-03T01:18:47.991Z,6.10
2019-04-03T01:21:19.859Z,6.10
2019-04-03T01:23:49.063Z,6.10
2019-04-03T01:26:17.978Z,6.20
2019-04-03T01:28:46.959Z,6.30
2019-04-03T01:31:15.935Z,6.30
2019-04-03T01:33:46.833Z,6.40
2019-04-03T01:36:17.162Z,6.40
2019-04-03T01:38:46.022Z,6.40
2019-04-03T01:41:14.968Z,6.40
2019-04-03T01:43:43.908Z,6.40
2019-04-03T01:46:12.880Z,6.40
2019-04-03T01:48:43.476Z,6.50
2019-04-03T01:51:15.424Z,6.60
2019-04-03T01:53:44.331Z,6.60
2019-04-03T01:56:16.065Z,6.70
2019-04-03T01:58:44.967Z,6.80
2019-04-03T02:01:13.906Z,6.90
2019-04-03T02:03:45.832Z,7.00
2019-04-03T02:06:17.646Z,7.10
2019-04-03T02:08:46.679Z,7.20
2019-04-03T02:11:19.198Z,7.20
2019-04-03T02:13:50.855Z,7.30
2019-04-03T02:16:18.925Z,7.40
2019-04-03T02:18:47.906Z,7.40
2019-04-03T02:21:16.860Z,7.40
2019-04-03T02:23:45.766Z,7.50
2019-04-03T02:26:17.456Z,7.50
2019-04-03T02:28:46.414Z,7.60
2019-04-03T02:31:18.249Z,7.60
2019-04-03T02:33:46.116Z,7.70
2019-04-03T02:36:18.236Z,7.80
2019-04-03T02:38:47.196Z,7.80
2019-04-03T02:41:16.141Z,7.90
2019-04-03T02:43:47.920Z,7.90
2019-04-03T02:46:17.047Z,7.90
2019-04-03T02:48:46.076Z,7.90
2019-04-03T02:51:18.919Z,7.90
2019-04-03T02:53:47.443Z,7.90
2019-04-03T02:56:17.035Z,7.90
2019-04-03T02:58:47.407Z,7.90
2019-04-03T03:01:19.032Z,8.00
2019-04-03T03:03:49.458Z,8.00
2019-04-03T03:06:18.543Z,8.00
2019-04-03T03:08:48.036Z,8.10
2019-04-03T03:11:17.066Z,8.10
2019-04-03T03:13:46.101Z,8.10
2019-04-03T03:16:18.113Z,8.10
2019-04-03T03:18:48.964Z,8.10
2019-04-03T03:21:19.289Z,8.10
2019-04-03T03:23:49.203Z,8.10
2019-04-03T03:26:18.557Z,8.10
2019-04-03T03:28:50.883Z,8.00
2019-04-03T03:31:44.378Z,8.00
2019-04-03T03:33:50.987Z,8.00
2019-04-03T03:36:24.065Z,8.00
2019-04-03T03:38:51.129Z,8.00
2019-04-03T03:41:22.644Z,8.00
2019-04-03T03:43:52.065Z,7.90
2019-04-03T03:46:26.447Z,7.90
2019-04-03T03:48:55.053Z,7.80
2019-04-03T03:51:25.481Z,7.70
2019-04-03T03:53:55.605Z,7.60
2019-04-03T03:56:25.208Z,7.60
2019-04-03T03:58:54.218Z,7.50
2019-04-03T04:01:23.338Z,7.40
2019-04-03T04:03:52.391Z,7.20
2019-04-03T04:06:21.650Z,7.20
2019-04-03T04:08:51.898Z,7.10
2019-04-03T04:11:20.959Z,7.00
2019-04-03T04:13:50.432Z,7.00
2019-04-03T04:16:19.967Z,6.90
2019-04-03T04:18:50.183Z,6.90
2019-04-03T04:21:19.244Z,6.80
2019-04-03T04:23:48.870Z,6.80
2019-04-03T04:26:18.345Z,6.80
2019-04-03T04:28:50.191Z,6.80
2019-04-03T04:31:19.507Z,6.80
2019-04-03T04:33:48.469Z,6.70
2019-04-03T04:36:17.462Z,6.70
2019-04-03T04:38:49.570Z,6.70
2019-04-03T04:41:18.569Z,6.60
2019-04-03T04:43:47.595Z,6.50
2019-04-03T04:46:19.560Z,6.50
2019-04-03T04:48:50.962Z,6.50
2019-04-03T04:51:19.068Z,6.40
2019-04-03T04:53:47.980Z,6.50
2019-04-03T04:56:19.825Z,6.40
2019-04-03T04:58:48.825Z,6.40
2019-04-03T05:01:18.238Z,6.50
2019-04-03T05:03:47.913Z,6.40
2019-04-03T05:06:18.328Z,6.40
2019-04-03T05:08:48.890Z,6.50
2019-04-03T05:11:17.840Z,6.50
2019-04-03T05:13:47.202Z,6.60
2019-04-03T05:16:20.216Z,6.60
2019-04-03T05:18:48.342Z,6.70
2019-04-03T05:21:17.557Z,6.80
2019-04-03T05:23:47.192Z,6.90
2019-04-03T05:26:20.673Z,6.90
2019-04-03T05:28:55.731Z,7.00
2019-04-03T05:31:18.949Z,7.10
2019-04-03T05:33:47.860Z,7.10
2019-04-03T05:36:19.877Z,7.10
2019-04-03T05:38:48.786Z,7.20
2019-04-03T05:41:18.321Z,7.30
2019-04-03T05:43:47.244Z,7.30
2019-04-03T05:46:19.652Z,7.40
2019-04-03T05:48:49.019Z,7.40
2019-04-03T05:51:17.965Z,7.50
2019-04-03T05:53:46.872Z,7.50
2019-04-03T05:56:18.284Z,7.60
2019-04-03T05:58:55.502Z,7.70
2019-04-03T06:01:17.935Z,7.70
2019-04-03T06:03:46.883Z,7.70
2019-04-03T06:06:16.183Z,7.80
2019-04-03T06:08:45.340Z,7.80
2019-04-03T06:11:14.389Z,7.90
2019-04-03T06:13:43.490Z,8.00
2019-04-03T06:16:12.410Z,8.10
2019-04-03T06:18:41.582Z,8.10
2019-04-03T06:21:10.521Z,8.20
2019-04-03T06:23:39.616Z,8.30
2019-04-03T06:26:08.585Z,8.40
2019-04-03T06:28:37.733Z,8.50
2019-04-03T06:31:08.116Z,8.60
2019-04-03T06:33:37.312Z,8.70
2019-04-03T06:36:06.394Z,8.80
2019-04-03T06:38:35.524Z,8.90
2019-04-03T06:41:07.799Z,9.00
2019-04-03T06:43:36.372Z,9.10
2019-04-03T06:46:05.856Z,9.20
2019-04-03T06:48:38.273Z,9.40
2019-04-03T06:51:07.233Z,9.50
2019-04-03T06:53:36.237Z,9.60
2019-04-03T06:56:08.937Z,9.70
2019-04-03T06:58:40.058Z,9.70
2019-04-03T07:01:08.729Z,9.80
2019-04-03T07:03:38.003Z,9.80
2019-04-03T07:06:06.983Z,9.90
2019-04-03T07:08:38.029Z,9.80
2019-04-03T07:11:06.479Z,9.80
2019-04-03T07:13:38.211Z,9.90
2019-04-03T07:16:07.147Z,9.80
2019-04-03T07:18:37.048Z,8.90
2019-04-03T07:21:06.376Z,9.90
2019-04-03T07:23:35.856Z,10.00
2019-04-03T07:26:05.564Z,10.10
2019-04-03T07:28:36.309Z,10.30
2019-04-03T07:31:06.757Z,10.40
2019-04-03T07:33:38.709Z,10.60
2019-04-03T07:36:10.198Z,10.70
2019-04-03T07:38:38.252Z,10.90
2019-04-03T07:41:07.250Z,11.00
2019-04-03T07:43:37.878Z,11.20
2019-04-03T07:46:06.859Z,11.30
2019-04-03T07:48:38.482Z,11.40
2019-04-03T07:51:07.931Z,11.50
2019-04-03T07:53:37.242Z,11.60
2019-04-03T07:56:07.881Z,11.80
2019-04-03T07:58:36.939Z,11.80
2019-04-03T08:01:07.793Z,12.00
2019-04-03T08:03:37.286Z,12.20
2019-04-03T08:06:06.333Z,12.40
2019-04-03T08:08:35.375Z,12.50
2019-04-03T08:11:04.650Z,12.60
2019-04-03T08:13:33.762Z,12.50
2019-04-03T08:16:02.835Z,12.60
2019-04-03T08:18:31.748Z,12.60
2019-04-03T08:21:01.827Z,12.60
2019-04-03T08:23:31.456Z,12.60
2019-04-03T08:26:03.327Z,12.70
2019-04-03T08:28:32.283Z,12.70
2019-04-03T08:31:01.290Z,12.80
2019-04-03T08:33:33.571Z,12.90
2019-04-03T08:36:02.717Z,13.10
2019-04-03T08:38:31.841Z,13.30
2019-04-03T08:41:03.615Z,13.30
2019-04-03T08:43:32.697Z,13.20
2019-04-03T08:46:02.101Z,13.20
2019-04-03T08:48:31.023Z,13.30
2019-04-03T08:51:02.267Z,13.30
2019-04-03T08:53:31.036Z,13.30
2019-04-03T08:56:03.204Z,13.40
2019-04-03T08:58:32.116Z,13.30
2019-04-03T09:01:03.951Z,13.10
2019-04-03T09:03:31.878Z,12.80
2019-04-03T09:06:00.942Z,12.70
2019-04-03T09:08:33.123Z,12.70
2019-04-03T09:11:02.641Z,12.70
2019-04-03T09:13:33.046Z,12.70
2019-04-03T09:16:02.083Z,12.60
2019-04-03T09:18:34.140Z,12.80
2019-04-03T09:21:03.156Z,12.80
2019-04-03T09:23:34.769Z,12.70
2019-04-03T09:26:03.898Z,12.80
2019-04-03T09:28:32.922Z,12.80
2019-04-03T09:31:01.834Z,13.10
2019-04-03T09:33:31.013Z,13.10
2019-04-03T09:36:03.694Z,13.10
2019-04-03T09:38:35.305Z,13.00
2019-04-03T09:41:05.700Z,12.60
2019-04-03T09:43:34.761Z,12.50
2019-04-03T09:46:03.656Z,12.50
2019-04-03T09:48:32.626Z,12.40
2019-04-03T09:51:01.865Z,12.60
2019-04-03T09:53:31.066Z,12.60
2019-04-03T09:56:00.331Z,12.70
2019-04-03T09:58:29.579Z,12.70
2019-04-03T10:01:00.730Z,12.80
2019-04-03T10:03:31.647Z,12.70
2019-04-03T10:06:01.167Z,12.70
2019-04-03T10:08:31.740Z,12.80
2019-04-03T10:11:04.642Z,13.00
2019-04-03T10:13:33.830Z,12.70
2019-04-03T10:16:03.564Z,12.60
2019-04-03T10:18:33.339Z,12.60
2019-04-03T10:21:03.720Z,12.60
2019-04-03T10:23:32.684Z,12.70
2019-04-03T10:26:07.825Z,12.70
2019-04-03T10:28:35.523Z,12.70
2019-04-03T10:31:04.761Z,12.70
2019-04-03T10:33:34.346Z,12.60
2019-04-03T10:36:03.415Z,12.70
2019-04-03T10:38:32.787Z,12.60
2019-04-03T10:41:02.263Z,12.40
2019-04-03T10:43:31.437Z,12.40
2019-04-03T10:46:01.201Z,12.20
2019-04-03T10:48:30.464Z,12.20
2019-04-03T10:50:59.748Z,12.40
2019-04-03T10:53:28.702Z,12.40
2019-04-03T10:55:57.858Z,12.40
2019-04-03T10:58:28.214Z,12.50
2019-04-03T11:00:59.097Z,12.50
2019-04-03T11:03:27.731Z,12.40
2019-04-03T11:05:56.636Z,12.30
2019-04-03T11:08:25.925Z,12.10
2019-04-03T11:10:57.482Z,12.10
2019-04-03T11:13:25.756Z,11.90
2019-04-03T11:15:54.809Z,11.90
2019-04-03T11:18:24.083Z,11.70
2019-04-03T11:20:53.050Z,11.50
2019-04-03T11:23:35.780Z,11.30
2019-04-03T11:25:52.594Z,11.10
2019-04-03T11:28:21.653Z,11.00
2019-04-03T11:30:52.809Z,10.90
2019-04-03T11:33:21.654Z,10.80
2019-04-03T11:35:52.322Z,10.70
2019-04-03T11:38:27.127Z,10.60
2019-04-03T11:40:51.756Z,10.50
2019-04-03T11:43:20.932Z,10.50
2019-04-03T11:45:50.019Z,10.40
2019-04-03T11:48:19.104Z,10.50
2019-04-03T11:50:48.242Z,10.50
2019-04-03T11:53:17.159Z,10.60
2019-04-03T11:55:46.130Z,10.60
2019-04-03T11:58:15.042Z,10.60
2019-04-03T12:00:48.768Z,10.70
2019-04-03T12:03:17.703Z,10.80
2019-04-03T12:05:47.553Z,10.90
2019-04-03T12:08:17.450Z,11.10
2019-04-03T12:10:46.494Z,11.00
2019-04-03T12:13:15.407Z,11.10
2019-04-03T12:15:44.810Z,11.00
2019-04-03T12:18:14.079Z,10.80
2019-04-03T12:20:44.860Z,10.60
2019-04-03T12:23:14.077Z,10.40
2019-04-03T12:25:42.980Z,10.20
2019-04-03T12:28:12.397Z,10.10
2019-04-03T12:30:41.586Z,10.00
2019-04-03T12:33:10.657Z,9.90
2019-04-03T12:35:42.264Z,9.70
2019-04-03T12:38:10.233Z,9.70
2019-04-03T12:40:39.156Z,9.70
2019-04-03T12:43:08.097Z,9.60
2019-04-03T12:45:37.008Z,9.60
2019-04-03T12:48:08.902Z,9.50
2019-04-03T12:50:37.960Z,9.50
2019-04-03T12:53:07.150Z,9.50
2019-04-03T12:55:36.126Z,8.10
2019-04-03T12:58:05.761Z,9.40
2019-04-03T13:00:35.942Z,9.20
2019-04-03T13:03:08.030Z,9.20
2019-04-03T13:05:38.042Z,9.20
2019-04-03T13:08:07.706Z,9.10
2019-04-03T13:10:42.599Z,9.00
2019-04-03T13:13:07.404Z,8.90
2019-04-03T13:15:39.127Z,8.90
2019-04-03T13:18:08.214Z,8.90
2019-04-03T13:20:37.661Z,8.90
2019-04-03T13:23:07.271Z,8.90
2019-04-03T13:25:38.938Z,8.80
2019-04-03T13:28:08.217Z,8.70
2019-04-03T13:30:43.156Z,8.70
2019-04-03T13:33:11.255Z,8.60
2019-04-03T13:35:40.361Z,8.60
2019-04-03T13:38:09.393Z,8.70
2019-04-03T13:40:39.807Z,8.70
2019-04-03T13:43:09.341Z,8.70
2019-04-03T13:45:40.026Z,8.80
2019-04-03T13:48:12.679Z,8.80
2019-04-03T13:50:39.678Z,8.80
2019-04-03T13:53:09.286Z,8.80
2019-04-03T13:55:40.204Z,8.80
2019-04-03T13:58:09.148Z,8.90
2019-04-03T14:00:40.830Z,9.10
2019-04-03T14:03:09.739Z,9.20
2019-04-03T14:05:43.239Z,9.30
2019-04-03T14:08:12.507Z,9.30
2019-04-03T14:10:42.429Z,9.20
2019-04-03T14:13:12.452Z,9.20
2019-04-03T14:15:42.199Z,9.10
2019-04-03T14:18:11.298Z,9.00
2019-04-03T14:20:40.333Z,9.00
2019-04-03T14:23:09.848Z,9.00
2019-04-03T14:25:39.350Z,9.00
2019-04-03T14:28:08.636Z,9.00
2019-04-03T14:30:37.636Z,8.90
2019-04-03T14:33:06.652Z,8.80
2019-04-03T14:35:50.007Z,8.70
2019-04-03T14:38:06.565Z,8.60
2019-04-03T14:40:36.061Z,8.50
2019-04-03T14:43:05.235Z,8.50
2019-04-03T14:45:34.374Z,8.40
2019-04-03T14:48:03.358Z,8.40
2019-04-03T14:50:36.609Z,8.50
2019-04-03T14:53:04.927Z,8.70
2019-04-03T14:55:46.280Z,8.90
2019-04-03T14:58:04.566Z,9.00
2019-04-03T15:00:33.508Z,9.20
2019-04-03T15:03:04.525Z,9.40
2019-04-03T15:05:33.317Z,9.50
2019-04-03T15:08:04.926Z,9.50
2019-04-03T15:10:33.216Z,9.70
2019-04-03T15:13:02.248Z,9.70
2019-04-03T15:15:31.303Z,9.70
2019-04-03T15:18:01.037Z,8.80
2019-04-03T15:20:32.781Z,9.30
2019-04-03T15:23:03.933Z,9.10
2019-04-03T15:25:32.589Z,8.80
2019-04-03T15:28:02.054Z,8.70
2019-04-03T15:30:31.345Z,8.50
2019-04-03T15:33:00.691Z,8.40
2019-04-03T15:35:32.085Z,8.40
2019-04-03T15:38:00.588Z,8.40
2019-04-03T15:40:31.632Z,8.40
2019-04-03T15:43:02.567Z,8.40
2019-04-03T15:45:32.042Z,8.40
2019-04-03T15:48:01.506Z,8.40
2019-04-03T15:50:33.391Z,8.40
2019-04-03T15:53:01.290Z,8.50
2019-04-03T15:55:31.315Z,8.50
2019-04-03T15:58:00.263Z,8.50
2019-04-03T16:00:30.624Z,8.50
2019-04-03T16:03:02.495Z,8.40
2019-04-03T16:05:35.623Z,8.50
2019-04-03T16:08:03.497Z,8.50
2019-04-03T16:10:32.809Z,8.50
2019-04-03T16:13:02.107Z,8.50
2019-04-03T16:15:34.029Z,8.50
2019-04-03T16:18:06.289Z,8.50
2019-04-03T16:20:33.567Z,8.50
2019-04-03T16:23:03.862Z,8.50
2019-04-03T16:25:33.055Z,8.60
2019-04-03T16:28:02.629Z,8.70
2019-04-03T16:30:31.894Z,8.70
2019-04-03T16:33:03.465Z,8.70
2019-04-03T16:35:31.796Z,8.70
2019-04-03T16:38:01.343Z,8.70
2019-04-03T16:40:32.363Z,8.70
2019-04-03T16:43:04.426Z,8.70
2019-04-03T16:45:33.323Z,8.70
2019-04-03T16:48:02.272Z,8.70
2019-04-03T16:50:32.878Z,8.60
2019-04-03T16:53:01.910Z,8.60
2019-04-03T16:55:33.657Z,8.60
2019-04-03T16:58:02.585Z,8.60
2019-04-03T17:00:32.484Z,8.60
2019-04-03T17:03:02.166Z,8.70
2019-04-03T17:05:31.230Z,8.60
2019-04-03T17:08:00.644Z,8.60
2019-04-03T17:10:31.265Z,8.60
2019-04-03T17:13:02.771Z,8.60
2019-04-03T17:15:32.243Z,8.60
2019-04-03T17:18:02.818Z,8.60
2019-04-03T17:20:32.095Z,8.50
2019-04-03T17:23:04.108Z,8.50
2019-04-03T17:25:44.061Z,8.50
2019-04-03T17:28:07.988Z,8.50
2019-04-03T17:30:34.428Z,8.50
2019-04-03T17:33:03.451Z,8.40
2019-04-03T17:35:32.415Z,8.40
2019-04-03T17:38:01.497Z,8.40
2019-04-03T17:40:30.764Z,8.40
2019-04-03T17:43:02.661Z,8.40
2019-04-03T17:45:31.622Z,8.40
2019-04-03T17:48:03.519Z,8.30
2019-04-03T17:50:32.472Z,8.30
2019-04-03T17:53:01.577Z,8.20
2019-04-03T17:55:33.555Z,8.20
2019-04-03T17:58:02.458Z,8.20
2019-04-03T18:00:34.403Z,8.20
2019-04-03T18:03:03.383Z,8.20
2019-04-03T18:05:33.314Z,8.20
2019-04-03T18:08:02.440Z,8.20
2019-04-03T18:10:34.748Z,8.10
2019-04-03T18:13:03.667Z,8.10
2019-04-03T18:15:33.046Z,8.00
2019-04-03T18:18:05.141Z,7.90
2019-04-03T18:20:34.110Z,7.80
2019-04-03T18:23:03.017Z,7.70
2019-04-03T18:25:31.974Z,7.60
2019-04-03T18:28:05.384Z,7.40
2019-04-03T18:30:34.577Z,7.40
2019-04-03T18:33:05.682Z,7.40
2019-04-03T18:35:34.070Z,7.30
2019-04-03T18:38:03.005Z,7.30
2019-04-03T18:40:32.183Z,7.30
2019-04-03T18:43:03.750Z,7.20
2019-04-03T18:45:32.654Z,7.20
2019-04-03T18:48:01.668Z,7.20
2019-04-03T18:50:30.645Z,7.10
2019-04-03T18:52:59.820Z,7.00
2019-04-03T18:55:28.725Z,7.00
2019-04-03T18:57:57.721Z,6.90
2019-04-03T19:00:27.081Z,6.90
2019-04-03T19:02:56.085Z,6.90
2019-04-03T19:05:24.992Z,6.80
2019-04-03T19:07:55.698Z,6.80
2019-04-03T19:10:24.501Z,6.80
2019-04-03T19:12:53.447Z,6.80
2019-04-03T19:15:22.373Z,6.80
2019-04-03T19:17:59.924Z,6.70
2019-04-03T19:20:21.868Z,6.70
2019-04-03T19:23:01.921Z,6.70
2019-04-03T19:25:21.374Z,6.70
2019-04-03T19:27:50.319Z,6.70
2019-04-03T19:30:19.328Z,6.80
2019-04-03T19:32:48.286Z,6.80
2019-04-03T19:35:17.193Z,6.90
2019-04-03T19:37:46.140Z,6.80
2019-04-03T19:40:17.990Z,6.80
2019-04-03T19:42:48.852Z,6.70
2019-04-03T19:45:20.627Z,6.70
2019-04-03T19:47:48.101Z,6.60
2019-04-03T19:50:17.008Z,6.60
2019-04-03T19:52:48.962Z,6.50
2019-04-03T19:55:19.393Z,6.50
2019-04-03T19:57:48.516Z,6.40
2019-04-03T20:00:17.518Z,6.40
2019-04-03T20:02:46.509Z,6.30
2019-04-03T20:05:18.910Z,6.30
2019-04-03T20:07:48.539Z,6.30
2019-04-03T20:10:17.444Z,6.30
2019-04-03T20:12:49.069Z,6.30
2019-04-03T20:15:18.002Z,6.30
2019-04-03T20:17:46.963Z,6.40
2019-04-03T20:20:15.870Z,6.40
2019-04-03T20:22:47.729Z,6.40
2019-04-03T20:25:16.697Z,6.40
2019-04-03T20:27:51.438Z,6.30
2019-04-03T20:30:19.381Z,6.40
2019-04-03T20:32:48.271Z,6.40
2019-04-03T20:35:18.700Z,6.30
2019-04-03T20:37:47.839Z,6.30
2019-04-03T20:40:16.895Z,6.30
2019-04-03T20:42:48.727Z,6.30
2019-04-03T20:45:19.189Z,6.30
2019-04-03T20:47:48.273Z,6.30
2019-04-03T20:50:17.612Z,6.30
2019-04-03T20:52:46.922Z,6.30
2019-04-03T20:55:18.763Z,6.30
2019-04-03T20:57:55.268Z,6.30
2019-04-03T21:00:19.178Z,6.30
2019-04-03T21:02:48.226Z,6.30
2019-04-03T21:05:18.574Z,6.30
2019-04-03T21:07:47.903Z,6.30
2019-04-03T21:10:18.530Z,6.20
2019-04-03T21:12:51.687Z,6.30
2019-04-03T21:15:21.284Z,6.30
2019-04-03T21:17:50.641Z,6.30
2019-04-03T21:20:19.578Z,6.20
2019-04-03T21:22:49.485Z,6.30
2019-04-03T21:25:18.823Z,6.30
2019-04-03T21:27:48.983Z,6.30
2019-04-03T21:30:18.659Z,6.30
2019-04-03T21:32:49.462Z,6.20
2019-04-03T21:35:21.758Z,6.20
2019-04-03T21:37:50.681Z,6.20
2019-04-03T21:40:20.875Z,6.20
2019-04-03T21:42:51.085Z,6.30
2019-04-03T21:45:21.267Z,6.30
2019-04-03T21:47:50.226Z,6.30
2019-04-03T21:50:20.007Z,6.20
2019-04-03T21:52:53.571Z,6.20
2019-04-03T21:55:21.136Z,6.20
2019-04-03T21:57:50.036Z,6.10
2019-04-03T22:00:23.491Z,6.00
2019-04-03T22:02:52.396Z,5.90
2019-04-03T22:05:22.973Z,5.90
2019-04-03T22:07:52.332Z,5.90
2019-04-03T22:10:21.542Z,5.90
2019-04-03T22:12:50.789Z,5.90
2019-04-03T22:15:20.242Z,5.90
2019-04-03T22:17:52.405Z,5.90
2019-04-03T22:20:20.104Z,5.90
2019-04-03T22:22:49.061Z,5.90
2019-04-03T22:25:18.127Z,5.90
2019-04-03T22:27:47.448Z,5.80
2019-04-03T22:30:16.590Z,5.80
2019-04-03T22:32:46.621Z,5.80
2019-04-03T22:35:16.070Z,5.60
2019-04-03T22:37:45.110Z,5.60
2019-04-03T22:40:14.038Z,5.60
2019-04-03T22:42:45.368Z,5.70
2019-04-03T22:45:13.537Z,5.80
2019-04-03T22:47:42.487Z,5.90
2019-04-03T22:50:11.402Z,6.00
2019-04-03T22:52:40.537Z,5.90
2019-04-03T22:55:09.685Z,6.00
2019-04-03T22:57:38.630Z,6.00
2019-04-03T23:00:08.335Z,6.00
2019-04-03T23:02:37.306Z,6.00
2019-04-03T23:05:07.000Z,6.00
2019-04-03T23:07:35.951Z,6.00
2019-04-03T23:10:06.590Z,6.00
2019-04-03T23:12:35.593Z,6.10
2019-04-03T23:15:08.633Z,6.20
2019-04-03T23:17:36.003Z,6.20
2019-04-03T23:20:06.034Z,6.30
2019-04-03T23:22:35.004Z,6.30
2019-04-03T23:25:04.894Z,6.30
2019-04-03T23:27:33.836Z,6.20
2019-04-03T23:30:02.951Z,6.20
2019-04-03T23:32:31.903Z,6.10
2019-04-03T23:35:00.805Z,6.10
2019-04-03T23:37:29.780Z,6.20
2019-04-03T23:40:01.584Z,6.20
2019-04-03T23:42:30.640Z,6.30
2019-04-03T23:44:59.597Z,6.40
2019-04-03T23:47:31.376Z,6.40
2019-04-03T23:50:00.327Z,6.40
2019-04-03T23:52:29.933Z,6.50
2019-04-03T23:54:59.495Z,6.50
2019-04-03T23:57:29.869Z,6.50
